Time;durP1;ratioP1;P1;durP2;ratioP2;P2;SDS_P1;SDS_P2;PMS_P1;PMS_P2;Temp;Humidity;BMP_temperature;BMP_pressure;BME280_temperature;BME280_humidity;BME280_pressure;Samples;Min_cycle;Max_cycle;Signal;HPM_P1;HPM_P2
2023/06/12 00:00:47;;;;;;;11.40;3.00;;;;;;;;;;6280790;22;20593;-88
2023/06/12 00:03:13;;;;;;;8.95;2.65;;;;;;;;;;6281564;22;20394;-88
2023/06/12 00:05:43;;;;;;;5.75;3.10;;;;;;;;;;6256672;22;20422;-89
2023/06/12 00:08:11;;;;;;;3.78;2.33;;;;;;;;;;6231342;22;20012;-88
2023/06/12 00:10:39;;;;;;;10.27;2.83;;;;;;;;;;6254129;22;20015;-88
2023/06/12 00:13:06;;;;;;;5.32;2.88;;;;;;;;;;6229494;22;20034;-89
2023/06/12 00:15:34;;;;;;;5.95;2.38;;;;;;;;;;6229482;22;20032;-88
2023/06/12 00:18:02;;;;;;;12.05;2.70;;;;;;;;;;6255667;22;20051;-88
2023/06/12 00:20:28;;;;;;;8.00;2.47;;;;;;;;;;6230120;22;20022;-87
2023/06/12 00:22:54;;;;;;;7.88;2.45;;;;;;;;;;6232142;22;20093;-88
2023/06/12 00:25:24;;;;;;;5.50;2.42;;;;;;;;;;6231444;22;20040;-88
2023/06/12 00:27:50;;;;;;;5.55;2.58;;;;;;;;;;6256437;22;20390;-88
2023/06/12 00:30:22;;;;;;;5.82;2.50;;;;;;;;;;6229992;22;20011;-87
2023/06/12 00:32:51;;;;;;;6.85;2.60;;;;;;;;;;6283765;22;20000;-87
2023/06/12 00:35:19;;;;;;;7.40;2.38;;;;;;;;;;6231798;22;20034;-86
2023/06/12 00:37:46;;;;;;;4.80;2.72;;;;;;;;;;6232192;22;20099;-87
2023/06/12 00:40:12;;;;;;;7.85;3.15;;;;;;;;;;6281798;22;20011;-86
2023/06/12 00:42:47;;;;;;;8.23;2.65;;;;;;;;;;6256817;22;20071;-87
2023/06/12 00:45:16;;;;;;;4.07;2.70;;;;;;;;;;6283091;22;20031;-87
2023/06/12 00:48:02;;;;;;;10.65;2.70;;;;;;;;;;6254849;22;20023;-87
2023/06/12 00:50:44;;;;;;;8.65;2.92;;;;;;;;;;6257773;22;20019;-87
2023/06/12 00:53:14;;;;;;;8.25;2.88;;;;;;;;;;6255419;22;20004;-87
2023/06/12 00:55:41;;;;;;;6.80;2.85;;;;;;;;;;6257013;22;20233;-88
2023/06/12 00:58:09;;;;;;;9.80;2.85;;;;;;;;;;6229970;22;20079;-87
2023/06/12 01:00:40;;;;;;;8.43;2.97;;;;;;;;;;6229441;22;20039;-88
2023/06/12 01:03:12;;;;;;;6.05;2.92;;;;;;;;;;6254769;22;20022;-86
2023/06/12 01:05:42;;;;;;;14.77;3.10;;;;;;;;;;6252099;22;20011;-88
2023/06/12 01:08:20;;;;;;;3.20;2.65;;;;;;;;;;6253964;22;20034;-86
2023/06/12 01:10:55;;;;;;;7.60;3.30;;;;;;;;;;6255702;22;20375;-87
2023/06/12 01:13:25;;;;;;;13.57;2.92;;;;;;;;;;6255352;22;20406;-86
2023/06/12 01:15:52;;;;;;;5.13;2.30;;;;;;;;;;6231888;22;20476;-88
2023/06/12 01:18:21;;;;;;;7.10;3.03;;;;;;;;;;6233064;22;20106;-87
2023/06/12 01:20:48;;;;;;;9.35;2.97;;;;;;;;;;6232349;22;20011;-87
2023/06/12 01:23:27;;;;;;;9.75;2.70;;;;;;;;;;6258097;22;20016;-86
2023/06/12 01:25:53;;;;;;;5.35;2.90;;;;;;;;;;6256543;22;20046;-87
2023/06/12 01:28:43;;;;;;;6.47;2.67;;;;;;;;;;6256050;22;20247;-87
2023/06/12 01:31:28;;;;;;;9.38;3.38;;;;;;;;;;6218310;22;20004;-87
2023/06/12 01:34:03;;;;;;;12.57;3.63;;;;;;;;;;6257374;22;20035;-86
2023/06/12 01:36:32;;;;;;;13.37;3.10;;;;;;;;;;6283725;22;20026;-87
2023/06/12 01:39:00;;;;;;;13.50;3.25;;;;;;;;;;6254394;22;20795;-86
2023/06/12 01:41:28;;;;;;;18.90;5.72;;;;;;;;;;6229421;22;20145;-87
2023/06/12 01:43:54;;;;;;;6.35;3.88;;;;;;;;;;6254495;22;20095;-87
2023/06/12 01:46:26;;;;;;;5.88;3.38;;;;;;;;;;6253756;22;20007;-87
2023/06/12 01:48:52;;;;;;;7.38;3.30;;;;;;;;;;6230555;22;20093;-86
2023/06/12 01:51:23;;;;;;;6.80;3.40;;;;;;;;;;6254650;22;20655;-87
2023/06/12 01:53:49;;;;;;;9.65;3.40;;;;;;;;;;6251266;22;20346;-87
2023/06/12 01:56:17;;;;;;;9.45;3.08;;;;;;;;;;6253618;22;20027;-87
2023/06/12 01:58:44;;;;;;;8.73;3.25;;;;;;;;;;6228998;22;20061;-87
2023/06/12 02:01:15;;;;;;;9.90;3.13;;;;;;;;;;6254024;22;20007;-87
2023/06/12 02:03:45;;;;;;;8.77;3.53;;;;;;;;;;6255612;22;20008;-87
2023/06/12 02:06:13;;;;;;;7.38;3.00;;;;;;;;;;6254394;22;20006;-87
2023/06/12 02:08:39;;;;;;;5.95;2.67;;;;;;;;;;6255237;22;20012;-87
2023/06/12 02:11:20;;;;;;;8.20;3.15;;;;;;;;;;6282383;22;20030;-88
2023/06/12 02:13:46;;;;;;;11.75;3.40;;;;;;;;;;6254994;22;20004;-86
2023/06/12 02:16:13;;;;;;;8.52;3.13;;;;;;;;;;6255572;22;20004;-87
2023/06/12 02:18:51;;;;;;;11.02;3.58;;;;;;;;;;6255905;22;20007;-87
2023/06/12 02:21:20;;;;;;;14.00;3.50;;;;;;;;;;6254906;22;20088;-87
2023/06/12 02:23:50;;;;;;;14.77;4.82;;;;;;;;;;6257394;22;20022;-87
2023/06/12 02:26:38;;;;;;;12.02;3.28;;;;;;;;;;6255681;22;20359;-88
2023/06/12 02:29:08;;;;;;;11.60;4.00;;;;;;;;;;6236292;22;20015;-88
2023/06/12 02:31:35;;;;;;;10.20;3.15;;;;;;;;;;6278869;22;20008;-86
2023/06/12 02:34:01;;;;;;;15.25;3.00;;;;;;;;;;6256454;22;20012;-87
2023/06/12 02:36:28;;;;;;;8.63;4.40;;;;;;;;;;6255589;22;20007;-87
2023/06/12 02:38:54;;;;;;;8.18;3.22;;;;;;;;;;6256758;22;20007;-88
2023/06/12 02:41:20;;;;;;;9.27;3.55;;;;;;;;;;6258401;22;20100;-87
2023/06/12 02:43:53;;;;;;;6.45;3.28;;;;;;;;;;6258994;22;20012;-87
2023/06/12 02:46:20;;;;;;;8.73;3.60;;;;;;;;;;6281626;22;20525;-87
2023/06/12 02:48:47;;;;;;;19.15;4.00;;;;;;;;;;6311539;22;20441;-87
2023/06/12 02:51:13;;;;;;;10.43;3.72;;;;;;;;;;6288320;22;20056;-87
2023/06/12 02:53:41;;;;;;;19.55;3.95;;;;;;;;;;6262517;22;20180;-88
2023/06/12 02:56:11;;;;;;;9.75;4.03;;;;;;;;;;6262565;22;20504;-87
2023/06/12 02:58:40;;;;;;;11.05;3.78;;;;;;;;;;6288588;22;20015;-87
2023/06/12 03:01:08;;;;;;;7.05;3.15;;;;;;;;;;6287222;22;20000;-88
2023/06/12 03:03:36;;;;;;;6.80;3.50;;;;;;;;;;6262613;22;20480;-87
2023/06/12 03:06:03;;;;;;;10.23;3.63;;;;;;;;;;6264803;22;20019;-87
2023/06/12 03:08:29;;;;;;;7.53;3.47;;;;;;;;;;6286955;22;20011;-87
2023/06/12 03:10:55;;;;;;;15.82;3.88;;;;;;;;;;6288260;22;20007;-87
2023/06/12 03:13:23;;;;;;;11.05;3.90;;;;;;;;;;6262363;22;20162;-87
2023/06/12 03:15:50;;;;;;;10.25;3.83;;;;;;;;;;6260986;22;20034;-87
2023/06/12 03:18:16;;;;;;;9.38;3.50;;;;;;;;;;6261609;22;20023;-87
2023/06/12 03:20:42;;;;;;;15.27;4.57;;;;;;;;;;6261068;22;20090;-87
2023/06/12 03:23:08;;;;;;;8.32;3.70;;;;;;;;;;6286139;22;20008;-88
2023/06/12 03:25:35;;;;;;;10.93;4.43;;;;;;;;;;6261522;22;20015;-87
2023/06/12 03:28:11;;;;;;;6.57;3.75;;;;;;;;;;6261718;22;20057;-87
2023/06/12 03:30:37;;;;;;;12.95;3.97;;;;;;;;;;6313147;22;20003;-87
2023/06/12 03:33:04;;;;;;;10.25;4.50;;;;;;;;;;6259629;22;20007;-87
2023/06/12 03:35:33;;;;;;;9.50;4.15;;;;;;;;;;6259665;22;20007;-87
2023/06/12 03:38:11;;;;;;;;;;;;;;;;;;;;;
2023/06/12 03:40:37;;;;;;;9.35;4.68;;;;;;;;;;6312061;22;20381;-88
2023/06/12 03:43:04;;;;;;;13.30;4.28;;;;;;;;;;6285230;22;20029;-87
2023/06/12 03:45:32;;;;;;;11.45;3.67;;;;;;;;;;6286175;22;20523;-88
2023/06/12 03:48:04;;;;;;;11.55;3.90;;;;;;;;;;6251228;22;20023;-88
2023/06/12 03:50:31;;;;;;;10.40;4.03;;;;;;;;;;6257583;22;20007;-88
2023/06/12 03:52:57;;;;;;;11.18;3.65;;;;;;;;;;6254664;22;20004;-87
2023/06/12 03:55:24;;;;;;;6.55;4.00;;;;;;;;;;6256153;22;20425;-88
2023/06/12 03:57:51;;;;;;;10.57;3.97;;;;;;;;;;6256179;22;20022;-87
2023/06/12 04:00:19;;;;;;;9.50;4.05;;;;;;;;;;6256911;22;20012;-86
2023/06/12 04:02:46;;;;;;;13.00;4.00;;;;;;;;;;6257037;22;20008;-87
2023/06/12 04:05:15;;;;;;;19.83;5.78;;;;;;;;;;6232017;22;20027;-87
2023/06/12 04:07:41;;;;;;;7.43;3.88;;;;;;;;;;6257764;22;20464;-87
2023/06/12 04:10:10;;;;;;;8.55;4.13;;;;;;;;;;6258189;22;20004;-87
2023/06/12 04:12:37;;;;;;;9.82;3.80;;;;;;;;;;6249155;22;20004;-87
2023/06/12 04:15:11;;;;;;;11.55;4.75;;;;;;;;;;6257716;22;20410;-87
2023/06/12 04:17:38;;;;;;;9.73;3.42;;;;;;;;;;6257398;22;20016;-87
2023/06/12 04:20:06;;;;;;;9.85;4.28;;;;;;;;;;6255389;22;20004;-87
2023/06/12 04:22:32;;;;;;;19.25;4.15;;;;;;;;;;6258194;22;20011;-87
2023/06/12 04:25:01;;;;;;;18.35;5.55;;;;;;;;;;6257744;22;20061;-87
2023/06/12 04:27:28;;;;;;;9.13;3.95;;;;;;;;;;6256869;22;20493;-88
2023/06/12 04:29:57;;;;;;;16.30;4.47;;;;;;;;;;6257431;22;20008;-86
2023/06/12 04:32:33;;;;;;;8.98;3.85;;;;;;;;;;6256214;22;20065;-88
2023/06/12 04:35:00;;;;;;;14.00;4.70;;;;;;;;;;6256099;22;20019;-87
2023/06/12 04:37:26;;;;;;;10.95;4.07;;;;;;;;;;6258548;22;20035;-87
2023/06/12 04:39:52;;;;;;;8.32;4.00;;;;;;;;;;6259743;22;20014;-87
2023/06/12 04:42:26;;;;;;;9.05;3.65;;;;;;;;;;6262424;22;20074;-87
2023/06/12 04:44:56;;;;;;;7.25;3.78;;;;;;;;;;6259050;22;20026;-87
2023/06/12 04:47:23;;;;;;;12.35;3.97;;;;;;;;;;6282206;22;20023;-87
2023/06/12 04:49:52;;;;;;;11.02;4.25;;;;;;;;;;6258966;22;20071;-88
2023/06/12 04:52:19;;;;;;;11.38;3.88;;;;;;;;;;6267811;22;19995;-88
2023/06/12 04:54:47;;;;;;;10.77;4.68;;;;;;;;;;6260424;22;20003;-87
2023/06/12 04:57:16;;;;;;;12.13;4.25;;;;;;;;;;6257668;22;20007;-87
2023/06/12 04:59:45;;;;;;;10.25;4.05;;;;;;;;;;6283299;22;20018;-86
2023/06/12 05:02:11;;;;;;;12.55;3.95;;;;;;;;;;6289192;22;20061;-86
2023/06/12 05:04:38;;;;;;;8.93;4.72;;;;;;;;;;6282764;22;20289;-86
2023/06/12 05:07:14;;;;;;;17.40;4.53;;;;;;;;;;6286742;22;20003;-87
2023/06/12 05:09:40;;;;;;;8.75;4.30;;;;;;;;;;6282622;22;20010;-87
2023/06/12 05:12:07;;;;;;;9.32;4.03;;;;;;;;;;6308896;22;20173;-87
2023/06/12 05:14:44;;;;;;;12.98;4.75;;;;;;;;;;6282296;22;20182;-88
2023/06/12 05:17:11;;;;;;;8.27;4.43;;;;;;;;;;6282258;22;20003;-86
2023/06/12 05:19:41;;;;;;;9.77;4.50;;;;;;;;;;6283236;22;20035;-87
2023/06/12 05:22:08;;;;;;;10.88;4.25;;;;;;;;;;6283258;22;20010;-87
2023/06/12 05:24:37;;;;;;;10.95;4.78;;;;;;;;;;6280657;22;20007;-86
2023/06/12 05:27:26;;;;;;;17.05;5.03;;;;;;;;;;6284234;22;20042;-86
2023/06/12 05:29:52;;;;;;;14.05;4.88;;;;;;;;;;6252865;22;20011;-87
2023/06/12 05:32:20;;;;;;;9.80;4.65;;;;;;;;;;6284040;22;20030;-86
2023/06/12 05:34:52;;;;;;;10.73;4.35;;;;;;;;;;6260382;22;20007;-83
2023/06/12 05:37:19;;;;;;;6.82;4.07;;;;;;;;;;6259970;22;20011;-89
2023/06/12 05:39:51;;;;;;;10.88;4.10;;;;;;;;;;6286251;22;20031;-91
2023/06/12 05:42:18;;;;;;;8.07;4.60;;;;;;;;;;6260418;22;20018;-89
2023/06/12 05:44:47;;;;;;;7.78;3.95;;;;;;;;;;6283571;22;20011;-88
2023/06/12 05:47:13;;;;;;;11.93;4.22;;;;;;;;;;6253841;22;20177;-86
2023/06/12 05:49:42;;;;;;;15.00;4.90;;;;;;;;;;6231528;22;20027;-88
2023/06/12 05:52:12;;;;;;;14.30;4.75;;;;;;;;;;6254672;22;20011;-88
2023/06/12 05:54:38;;;;;;;10.98;5.18;;;;;;;;;;6253262;22;20008;-89
2023/06/12 05:57:05;;;;;;;11.93;4.60;;;;;;;;;;6280092;22;20000;-89
2023/06/12 05:59:36;;;;;;;20.48;5.13;;;;;;;;;;6252716;22;20500;-88
2023/06/12 06:02:04;;;;;;;11.52;4.65;;;;;;;;;;6252462;22;20012;-88
2023/06/12 06:04:38;;;;;;;;;;;;;;;;;;6254657;22;20043;-88
2023/06/12 06:07:04;;;;;;;9.35;4.43;;;;;;;;;;6252678;22;19910;-88
2023/06/12 06:09:31;;;;;;;15.13;4.88;;;;;;;;;;6227557;22;20386;-88
2023/06/12 06:11:57;;;;;;;7.20;4.35;;;;;;;;;;6252123;22;20004;-88
2023/06/12 06:14:23;;;;;;;12.68;4.63;;;;;;;;;;6253705;22;20016;-89
2023/06/12 06:16:49;;;;;;;9.73;3.92;;;;;;;;;;6255604;22;20004;-89
2023/06/12 06:19:16;;;;;;;12.80;4.32;;;;;;;;;;6255353;22;20042;-88
2023/06/12 06:21:42;;;;;;;27.92;4.35;;;;;;;;;;6258640;22;20008;-88
2023/06/12 06:24:27;;;;;;;14.02;4.68;;;;;;;;;;6265254;22;20008;-89
2023/06/12 06:26:53;;;;;;;13.88;4.18;;;;;;;;;;6264817;22;20011;-88
2023/06/12 06:29:19;;;;;;;9.20;4.38;;;;;;;;;;6264483;22;20062;-89
2023/06/12 06:31:47;;;;;;;8.85;4.18;;;;;;;;;;6286752;22;20067;-87
2023/06/12 06:34:14;;;;;;;13.88;4.53;;;;;;;;;;6258491;22;20004;-87
2023/06/12 06:36:42;;;;;;;13.27;4.18;;;;;;;;;;6259943;22;20011;-88
2023/06/12 06:39:08;;;;;;;19.60;6.70;;;;;;;;;;6259273;22;20003;-88
2023/06/12 06:41:34;;;;;;;9.48;4.00;;;;;;;;;;6258917;22;20083;-88
2023/06/12 06:44:01;;;;;;;19.98;4.45;;;;;;;;;;6258628;22;20380;-89
2023/06/12 06:46:27;;;;;;;9.32;4.25;;;;;;;;;;6255025;22;20004;-89
2023/06/12 06:49:00;;;;;;;7.72;4.55;;;;;;;;;;6300390;22;20448;-87
2023/06/12 06:51:27;;;;;;;9.45;4.50;;;;;;;;;;6285036;22;20007;-89
2023/06/12 06:53:53;;;;;;;9.15;4.75;;;;;;;;;;6284224;22;20023;-87
2023/06/12 06:56:22;;;;;;;13.98;5.90;;;;;;;;;;6259883;22;20018;-89
2023/06/12 06:58:48;;;;;;;10.63;5.32;;;;;;;;;;6285046;22;20004;-88
2023/06/12 07:01:15;;;;;;;8.63;4.82;;;;;;;;;;6284324;22;20011;-88
2023/06/12 07:03:42;;;;;;;12.48;4.50;;;;;;;;;;6283953;22;20437;-88
2023/06/12 07:06:08;;;;;;;11.30;4.70;;;;;;;;;;6285042;22;20500;-88
2023/06/12 07:08:40;;;;;;;18.10;4.45;;;;;;;;;;6311296;22;20044;-87
2023/06/12 07:11:10;;;;;;;7.10;4.57;;;;;;;;;;6312548;22;20133;-88
2023/06/12 07:13:41;;;;;;;12.27;4.70;;;;;;;;;;6312094;22;20003;-88
2023/06/12 07:16:09;;;;;;;6.53;4.55;;;;;;;;;;6283316;22;20007;-88
2023/06/12 07:18:37;;;;;;;10.80;4.75;;;;;;;;;;6308303;22;20007;-88
2023/06/12 07:21:03;;;;;;;19.52;5.22;;;;;;;;;;6281649;22;20016;-88
2023/06/12 07:23:34;;;;;;;10.95;5.10;;;;;;;;;;6258258;22;20007;-88
2023/06/12 07:26:00;;;;;;;9.45;4.70;;;;;;;;;;6281744;22;20018;-89
2023/06/12 07:31:28;;;;;;;9.45;4.70;;;;;;;;;;6289300;22;20449;-89
2023/06/12 07:33:55;;;;;;;9.52;4.75;;;;;;;;;;6311563;22;20007;-89
2023/06/12 07:36:28;;;;;;;13.23;5.20;;;;;;;;;;6286793;22;20007;-89
2023/06/12 07:38:55;;;;;;;14.68;5.53;;;;;;;;;;6259613;22;20015;-88
2023/06/12 07:41:24;;;;;;;10.85;4.55;;;;;;;;;;6288365;22;20453;-88
2023/06/12 07:43:51;;;;;;;7.45;4.57;;;;;;;;;;6286124;22;20031;-88
2023/06/12 07:46:24;;;;;;;15.10;5.63;;;;;;;;;;6284990;22;20034;-88
2023/06/12 07:48:53;;;;;;;12.18;4.90;;;;;;;;;;6249353;22;20020;-88
2023/06/12 07:51:19;;;;;;;12.43;5.28;;;;;;;;;;6252974;22;20004;-88
2023/06/12 07:53:50;;;;;;;6.22;4.57;;;;;;;;;;6254217;22;20008;-88
2023/06/12 07:56:17;;;;;;;10.55;5.63;;;;;;;;;;6254081;22;20004;-88
2023/06/12 07:58:47;;;;;;;9.85;5.10;;;;;;;;;;6252603;22;20016;-88
2023/06/12 08:01:15;;;;;;;15.15;5.13;;;;;;;;;;6232353;22;20027;-89
2023/06/12 08:03:44;;;;;;;14.02;5.07;;;;;;;;;;6256734;22;20029;-88
2023/06/12 08:06:11;;;;;;;9.48;4.75;;;;;;;;;;6252935;22;20021;-88
2023/06/12 08:08:44;;;;;;;10.13;5.03;;;;;;;;;;6256155;22;20090;-89
2023/06/12 08:11:12;;;;;;;10.95;5.63;;;;;;;;;;6253131;22;20008;-88
2023/06/12 08:13:39;;;;;;;14.48;4.90;;;;;;;;;;6255076;22;20703;-89
2023/06/12 08:16:07;;;;;;;8.90;5.63;;;;;;;;;;6256265;22;20061;-89
2023/06/12 08:18:38;;;;;;;8.15;5.20;;;;;;;;;;6255604;22;20011;-89
2023/06/12 08:21:08;;;;;;;9.55;5.45;;;;;;;;;;6256816;22;20014;-89
2023/06/12 08:23:34;;;;;;;9.30;4.90;;;;;;;;;;6253379;22;20531;-88
2023/06/12 08:26:04;;;;;;;11.02;6.10;;;;;;;;;;6257266;22;20460;-89
2023/06/12 08:28:30;;;;;;;9.77;6.00;;;;;;;;;;6255403;22;20007;-89
2023/06/12 08:30:57;;;;;;;5.70;4.72;;;;;;;;;;6257942;22;20059;-88
2023/06/12 08:33:24;;;;;;;16.13;5.60;;;;;;;;;;6253620;22;20008;-88
2023/06/12 08:36:02;;;;;;;9.40;5.00;;;;;;;;;;6279961;22;20004;-87
2023/06/12 08:38:28;;;;;;;12.88;5.78;;;;;;;;;;6247690;22;20011;-88
2023/06/12 08:40:58;;;;;;;11.60;5.35;;;;;;;;;;6255026;22;20468;-89
2023/06/12 08:43:28;;;;;;;16.95;5.80;;;;;;;;;;6259369;22;20003;-89
2023/06/12 08:45:59;;;;;;;13.27;6.18;;;;;;;;;;6255495;22;20020;-88
2023/06/12 08:48:33;;;;;;;8.35;4.38;;;;;;;;;;6262439;22;20011;-88
2023/06/12 08:51:00;;;;;;;8.15;5.18;;;;;;;;;;6287849;22;20014;-87
2023/06/12 08:53:30;;;;;;;7.28;5.22;;;;;;;;;;6287599;22;19999;-88
2023/06/12 08:56:02;;;;;;;13.35;4.93;;;;;;;;;;6262474;22;20011;-87
2023/06/12 09:01:33;;;;;;;9.93;4.88;;;;;;;;;;6289594;22;20003;-87
2023/06/12 09:04:01;;;;;;;7.40;4.70;;;;;;;;;;6283942;22;20429;-88
2023/06/12 09:06:36;;;;;;;10.45;5.30;;;;;;;;;;6315594;22;20015;-89
2023/06/12 09:09:04;;;;;;;10.98;4.85;;;;;;;;;;6264487;22;20017;-88
2023/06/12 09:11:49;;;;;;;8.85;5.03;;;;;;;;;;6287118;22;19999;-88
2023/06/12 09:14:25;;;;;;;7.60;5.25;;;;;;;;;;6286165;22;20009;-88
2023/06/12 09:17:12;;;;;;;9.73;4.68;;;;;;;;;;6260541;22;20011;-88
2023/06/12 09:22:37;;;;;;;14.32;4.85;;;;;;;;;;6265806;22;20007;-89
2023/06/12 09:25:06;;;;;;;13.40;5.45;;;;;;;;;;6316402;22;20448;-89
2023/06/12 09:27:42;;;;;;;9.70;4.85;;;;;;;;;;6288487;22;20014;-90
2023/06/12 09:30:15;;;;;;;11.93;5.10;;;;;;;;;;6313837;22;20003;-89
2023/06/12 09:32:58;;;;;;;7.43;5.18;;;;;;;;;;6265281;22;20010;-89
2023/06/12 09:35:36;;;;;;;11.73;5.07;;;;;;;;;;6285470;22;20003;-89
2023/06/12 09:38:14;;;;;;;8.95;4.63;;;;;;;;;;6260835;22;20011;-89
2023/06/12 09:40:56;;;;;;;;;;;;;;;;;;;;;
2023/06/12 09:44:04;;;;;;;7.90;5.10;;;;;;;;;;6288848;22;20046;-91
2023/06/12 09:47:03;;;;;;;;;;;;;;;;;;;;;
2023/06/12 09:49:32;;;;;;;9.48;5.20;;;;;;;;;;6190052;22;20028;-89
2023/06/12 09:52:18;;;;;;;;;;;;;;;;;;;;;
2023/06/12 09:54:54;;;;;;;9.70;5.18;;;;;;;;;;6259021;22;20089;-90
2023/06/12 09:57:40;;;;;;;10.25;5.57;;;;;;;;;;6284172;22;20010;-89
2023/06/12 10:00:29;;;;;;;;;;;;;;;;;;;;;
2023/06/12 10:03:14;;;;;;;10.32;5.18;;;;;;;;;;6312558;22;20023;-89
2023/06/12 10:06:06;;;;;;;10.95;4.88;;;;;;;;;;6288667;22;20084;-89
2023/06/12 10:11:25;;;;;;;8.18;5.30;;;;;;;;;;6311557;22;20314;-88
2023/06/12 10:13:53;;;;;;;11.60;5.18;;;;;;;;;;6285543;22;20014;-89
2023/06/12 10:16:25;;;;;;;16.10;5.25;;;;;;;;;;6290006;22;20275;-88
2023/06/12 10:18:51;;;;;;;11.27;5.05;;;;;;;;;;6264260;22;20035;-89
2023/06/12 10:21:20;;;;;;;19.13;5.47;;;;;;;;;;6287671;22;20003;-89
2023/06/12 10:23:48;;;;;;;7.07;4.75;;;;;;;;;;6264267;22;20019;-89
2023/06/12 10:26:15;;;;;;;5.68;4.38;;;;;;;;;;6263649;22;20015;-88
2023/06/12 10:28:58;;;;;;;10.63;5.05;;;;;;;;;;6288087;22;20203;-88
2023/06/12 10:31:35;;;;;;;6.57;4.78;;;;;;;;;;6267663;22;20066;-89
2023/06/12 10:34:25;;;;;;;10.68;5.68;;;;;;;;;;6290256;22;20029;-89
2023/06/12 10:36:57;;;;;;;12.68;5.53;;;;;;;;;;6283959;22;19999;-90
2023/06/12 10:39:25;;;;;;;10.23;5.18;;;;;;;;;;6284508;22;20141;-89
2023/06/12 10:41:58;;;;;;;7.80;4.78;;;;;;;;;;6258073;22;20022;-90
2023/06/12 10:44:36;;;;;;;9.75;5.20;;;;;;;;;;6312050;22;20011;-89
2023/06/12 10:47:03;;;;;;;9.65;5.57;;;;;;;;;;6280276;22;20015;-89
2023/06/12 10:49:29;;;;;;;7.65;4.93;;;;;;;;;;6274411;22;20035;-89
2023/06/12 10:52:00;;;;;;;5.85;5.13;;;;;;;;;;6252100;22;20003;-88
2023/06/12 10:54:26;;;;;;;12.77;5.32;;;;;;;;;;6251331;22;20004;-87
2023/06/12 10:57:00;;;;;;;13.27;5.63;;;;;;;;;;6250732;22;20003;-88
2023/06/12 10:59:40;;;;;;;10.18;5.65;;;;;;;;;;6227744;22;20031;-90
2023/06/12 11:02:07;;;;;;;14.35;5.53;;;;;;;;;;6254021;22;20000;-89
2023/06/12 11:04:44;;;;;;;10.82;5.50;;;;;;;;;;6255703;22;19999;-89
2023/06/12 11:07:17;;;;;;;13.15;5.57;;;;;;;;;;6226914;22;20007;-88
2023/06/12 11:09:44;;;;;;;6.68;4.90;;;;;;;;;;6230690;22;20009;-89
2023/06/12 11:12:10;;;;;;;10.60;5.43;;;;;;;;;;6227467;22;20008;-90
2023/06/12 11:14:36;;;;;;;14.20;5.60;;;;;;;;;;6253572;22;20057;-89
2023/06/12 11:17:04;;;;;;;6.65;5.00;;;;;;;;;;6227669;22;20364;-89
2023/06/12 11:19:30;;;;;;;9.30;5.60;;;;;;;;;;6228221;22;20011;-89
2023/06/12 11:21:59;;;;;;;9.77;5.40;;;;;;;;;;6230922;22;20023;-89
2023/06/12 11:24:39;;;;;;;9.15;5.68;;;;;;;;;;6229513;22;20003;-89
2023/06/12 11:27:06;;;;;;;12.65;5.57;;;;;;;;;;6255076;22;20024;-89
2023/06/12 11:29:36;;;;;;;10.38;5.65;;;;;;;;;;6254590;22;20026;-90
2023/06/12 11:32:04;;;;;;;9.35;5.22;;;;;;;;;;6229639;22;20748;-90
2023/06/12 11:34:42;;;;;;;11.80;6.00;;;;;;;;;;6263783;22;20018;-88
2023/06/12 11:37:16;;;;;;;9.95;5.25;;;;;;;;;;6269884;22;20010;-88
2023/06/12 11:39:43;;;;;;;10.90;5.97;;;;;;;;;;6268026;22;20064;-89
2023/06/12 11:42:36;;;;;;;9.02;5.00;;;;;;;;;;6296024;22;20004;-89
2023/06/12 11:45:18;;;;;;;12.55;6.05;;;;;;;;;;6261888;22;20085;-89
2023/06/12 11:47:55;;;;;;;8.27;5.40;;;;;;;;;;6235366;22;20004;-89
2023/06/12 11:50:28;;;;;;;12.82;5.63;;;;;;;;;;6265934;22;20023;-88
2023/06/12 11:52:57;;;;;;;9.27;6.07;;;;;;;;;;6260536;22;20008;-90
2023/06/12 11:55:23;;;;;;;13.90;5.72;;;;;;;;;;6259225;22;20016;-89
2023/06/12 11:58:04;;;;;;;6.80;5.53;;;;;;;;;;6230431;22;20341;-88
2023/06/12 12:00:40;;;;;;;13.18;6.13;;;;;;;;;;6253158;22;20023;-89
2023/06/12 12:03:09;;;;;;;6.45;5.72;;;;;;;;;;6228364;22;20007;-88
2023/06/12 12:05:38;;;;;;;8.55;5.68;;;;;;;;;;6254020;22;20015;-89
2023/06/12 12:08:04;;;;;;;7.20;5.40;;;;;;;;;;6251875;22;20039;-88
2023/06/12 12:10:53;;;;;;;8.65;6.03;;;;;;;;;;6227841;22;20014;-88
2023/06/12 12:13:22;;;;;;;7.70;5.57;;;;;;;;;;6227736;22;20045;-88
2023/06/12 12:15:55;;;;;;;6.80;5.43;;;;;;;;;;6251673;22;20000;-88
2023/06/12 12:18:27;;;;;;;8.85;5.38;;;;;;;;;;6253077;22;20449;-87
2023/06/12 12:20:56;;;;;;;7.32;6.10;;;;;;;;;;6254416;22;20190;-88
2023/06/12 12:23:28;;;;;;;10.05;5.65;;;;;;;;;;6229172;22;20011;-89
2023/06/12 12:25:58;;;;;;;10.88;6.78;;;;;;;;;;6228399;22;20022;-88
2023/06/12 12:28:34;;;;;;;7.60;5.53;;;;;;;;;;6259361;22;20018;-88
2023/06/12 12:31:02;;;;;;;9.18;5.93;;;;;;;;;;6259629;22;20004;-88
2023/06/12 12:33:29;;;;;;;13.07;6.00;;;;;;;;;;6260627;22;20007;-88
2023/06/12 12:35:59;;;;;;;12.20;6.45;;;;;;;;;;6288506;22;20004;-89
2023/06/12 12:38:39;;;;;;;10.75;5.70;;;;;;;;;;6255547;22;20012;-89
2023/06/12 12:41:22;;;;;;;;;;;;;;;;;;;;;
2023/06/12 12:44:03;;;;;;;9.82;5.63;;;;;;;;;;6229453;22;20073;-88
2023/06/12 12:46:30;;;;;;;9.25;6.22;;;;;;;;;;6235234;22;20055;-88
2023/06/12 12:48:56;;;;;;;7.85;5.32;;;;;;;;;;6260105;22;20029;-89
2023/06/12 12:51:30;;;;;;;8.38;5.97;;;;;;;;;;6238830;22;20026;-88
2023/06/12 12:56:56;;;;;;;7.93;6.40;;;;;;;;;;6263879;22;20261;-89
2023/06/12 12:59:49;;;;;;;7.20;6.05;;;;;;;;;;6284880;22;20004;-88
2023/06/12 13:02:16;;;;;;;8.40;6.00;;;;;;;;;;6232092;22;20004;-89
2023/06/12 13:04:54;;;;;;;8.27;5.78;;;;;;;;;;6257966;22;20015;-89
2023/06/12 13:07:30;;;;;;;12.20;6.18;;;;;;;;;;6283130;22;20010;-88
2023/06/12 13:09:58;;;;;;;8.20;6.47;;;;;;;;;;6258040;22;20053;-87
2023/06/12 13:12:25;;;;;;;10.52;6.10;;;;;;;;;;6284438;22;20003;-88
2023/06/12 13:14:51;;;;;;;13.15;6.65;;;;;;;;;;6253665;22;20014;-89
2023/06/12 13:17:19;;;;;;;18.50;6.65;;;;;;;;;;6259526;22;20003;-89
2023/06/12 13:19:45;;;;;;;10.27;6.43;;;;;;;;;;6261950;22;20008;-89
2023/06/12 13:22:11;;;;;;;12.00;6.00;;;;;;;;;;6267728;22;20465;-90
2023/06/12 13:24:40;;;;;;;9.73;6.47;;;;;;;;;;6257913;22;20004;-89
2023/06/12 13:27:07;;;;;;;12.45;6.35;;;;;;;;;;6279840;22;20008;-88
2023/06/12 13:29:37;;;;;;;11.73;6.20;;;;;;;;;;6255572;22;20019;-89
2023/06/12 13:32:08;;;;;;;7.15;5.85;;;;;;;;;;6284409;22;20004;-89
2023/06/12 13:34:37;;;;;;;7.78;5.78;;;;;;;;;;6254323;22;20019;-89
2023/06/12 13:37:07;;;;;;;11.80;6.25;;;;;;;;;;6252810;22;20003;-89
2023/06/12 13:39:34;;;;;;;9.13;5.97;;;;;;;;;;6255970;22;20019;-90
2023/06/12 13:44:51;;;;;;;12.05;6.30;;;;;;;;;;6288958;22;20510;-90
2023/06/12 13:47:21;;;;;;;7.97;6.03;;;;;;;;;;6258297;22;20098;-90
2023/06/12 13:50:20;;;;;;;;;;;;;;;;;;;;;
2023/06/12 13:52:40;;;;;;;12.00;5.85;;;;;;;;;;6270485;22;20024;-89
2023/06/12 13:55:07;;;;;;;9.63;5.35;;;;;;;;;;6284945;22;20015;-89
2023/06/12 13:57:57;;;;;;;9.88;5.95;;;;;;;;;;6285712;22;20018;-89
2023/06/12 14:00:27;;;;;;;11.73;7.05;;;;;;;;;;6251832;22;20063;-90
2023/06/12 14:02:54;;;;;;;11.73;6.07;;;;;;;;;;6278786;22;20007;-90
2023/06/12 14:05:23;;;;;;;12.00;6.88;;;;;;;;;;6251798;22;20011;-91
2023/06/12 14:08:08;;;;;;;9.00;6.05;;;;;;;;;;6227704;22;20015;-90
2023/06/12 14:10:43;;;;;;;9.63;6.57;;;;;;;;;;6233656;22;20019;-90
2023/06/12 14:13:16;;;;;;;8.70;6.70;;;;;;;;;;6228006;22;20027;-90
2023/06/12 14:18:29;;;;;;;12.20;6.88;;;;;;;;;;6284785;22;20065;-90
2023/06/12 14:21:23;;;;;;;10.65;6.78;;;;;;;;;;6287042;22;20003;-90
2023/06/12 14:23:57;;;;;;;13.40;6.57;;;;;;;;;;6293120;22;20011;-91
2023/06/12 14:26:25;;;;;;;9.07;6.40;;;;;;;;;;6314668;22;20011;-91
2023/06/12 14:28:51;;;;;;;12.88;7.68;;;;;;;;;;6289498;22;19999;-90
2023/06/12 14:31:24;;;;;;;9.82;6.80;;;;;;;;;;6317196;22;20010;-90
2023/06/12 14:34:03;;;;;;;8.93;6.57;;;;;;;;;;6290546;22;20535;-90
2023/06/12 14:36:33;;;;;;;11.68;6.45;;;;;;;;;;6288538;22;20007;-90
2023/06/12 14:39:00;;;;;;;9.73;6.28;;;;;;;;;;6289284;22;20350;-90
2023/06/12 14:41:34;;;;;;;11.70;5.90;;;;;;;;;;6289071;22;20003;-90
2023/06/12 14:44:05;;;;;;;11.95;6.72;;;;;;;;;;6288369;22;20252;-89
2023/06/12 14:46:34;;;;;;;12.10;6.72;;;;;;;;;;6262260;22;20011;-90
2023/06/12 14:49:01;;;;;;;12.18;6.72;;;;;;;;;;6260899;22;20022;-90
2023/06/12 14:51:41;;;;;;;10.63;6.40;;;;;;;;;;6282807;22;20018;-90
2023/06/12 14:54:20;;;;;;;16.52;8.23;;;;;;;;;;6265169;22;20015;-91
2023/06/12 14:56:49;;;;;;;7.72;6.25;;;;;;;;;;6267152;22;20007;-90
2023/06/12 14:59:16;;;;;;;7.63;6.40;;;;;;;;;;6289962;22;20035;-90
2023/06/12 15:01:42;;;;;;;11.65;6.72;;;;;;;;;;6263329;22;20011;-91
2023/06/12 15:04:09;;;;;;;12.18;6.05;;;;;;;;;;6263874;22;20011;-90
2023/06/12 15:06:37;;;;;;;10.65;6.93;;;;;;;;;;6288797;22;20438;-90
2023/06/12 15:09:09;;;;;;;15.02;6.75;;;;;;;;;;6263984;22;20015;-90
2023/06/12 15:11:53;;;;;;;8.18;5.78;;;;;;;;;;6312528;22;20344;-91
2023/06/12 15:14:30;;;;;;;8.30;7.30;;;;;;;;;;6263368;22;20010;-90
2023/06/12 15:16:58;;;;;;;10.15;6.65;;;;;;;;;;6287052;22;20081;-90
2023/06/12 15:19:28;;;;;;;10.48;6.85;;;;;;;;;;6285739;22;20382;-91
2023/06/12 15:22:00;;;;;;;9.05;7.18;;;;;;;;;;6287024;22;20008;-89
2023/06/12 15:24:45;;;;;;;7.30;6.53;;;;;;;;;;6285820;22;20041;-90